Latest Coastal Weather Observations for Devonport Airport

IDV60701

Issued at 2:41 pm EDT Thursday 19 October 2017 (issued every 10 minutes, with the page automatically refreshed every 10 minutes)

About coastal observations | Map of coastal stations | Coastal observations for VIC | Marine services | Other Formats
Station Details ID: 091126 Name: DEVONPORT AIRPORT Lat: -41.17 Lon: 146.43 Height: 8.0 m
Data from the previous 72 hours. | See also: Recent months at Devonport Airport
Date/Time
EDT
Temp
°C
Wind Pressure Rain since
9am
mm
Weather Cloud Vis
km
Sea
Height
m
Swell
Dir  Spd
kts
Gust
kts
hPa Trend Height
m
Period
s
Dir
19/02:30pm 15.3 NNW 11 15 1012.5 - 4.6 - Cloudy 10 - - - -
19/02:26pm 15.3 NNW 11 14 1012.5 - 4.6 - Cloudy 9 - - - -
19/02:00pm 14.7 NNW 7 8 1012.9 - 4.6 - Cloudy 4 - - - -
19/01:43pm 14.6 NNW 7 9 1013.0 - 4.4 - Cloudy 6 - - - -
19/01:30pm 14.7 NNW 8 9 1013.2 - 4.4 - Cloudy 8 - - - -
19/01:28pm 15.0 NNW 8 9 1013.1 - 4.4 - Cloudy 8 - - - -
19/01:00pm 14.7 NNW 8 10 1013.2 - 4.4 - Partly cloudy 5 - - - -
19/12:37pm 14.7 N 7 8 1013.6 - 3.8 - Partly cloudy 6 - - - -
19/12:32pm 14.8 N 6 8 1013.6 - 3.6 - Partly cloudy 8 - - - -
19/12:30pm 14.7 N 6 8 1013.6 - 3.6 - Partly cloudy 8 - - - -
19/12:00pm 15.1 N 5 7 1013.6 - 3.6 Rain Cloudy 8 - - - -
19/11:55am 15.1 N 6 7 1013.6 - 3.6 - Partly cloudy 8 - - - -
19/11:34am 15.5 NNW 5 7 1013.4 - 3.6 - Partly cloudy 10 - - - -
19/11:30am 15.2 N 4 6 1013.3 - 3.6 - Partly cloudy 10 - - - -
19/11:03am 14.8 WNW 3 5 1013.2 - 3.4 - Partly cloudy 8 - - - -
19/11:00am 14.9 WNW 3 5 1013.2 - 3.4 - Partly cloudy 8 - - - -
19/10:30am 14.8 WNW 5 6 1013.4 - 2.6 - Cloudy 7 - - - -
19/10:11am 14.9 N 5 8 1013.5 - 2.2 - Cloudy 7 - - - -
19/10:07am 15.0 NNE 6 8 1013.4 - 2.0 - Cloudy 7 - - - -
19/10:00am 15.1 NE 7 8 1013.0 - 2.0 - Partly cloudy 6 - - - -
19/09:47am 15.2 NE 6 8 1013.4 - 1.6 - Cloudy 6 - - - -
19/09:34am 15.1 NE 7 11 1013.1 - 1.2 - Partly cloudy 7 - - - -
19/09:30am 15.2 NE 8 11 1013.1 - 1.0 - Partly cloudy 7 - - - -
19/09:00am 15.5 NE 8 10 1013.5 - 2.6 Rain Cloudy 5 - - - -
19/08:58am 15.5 NE 7 10 1013.6 - 2.2 - Partly cloudy 6 - - - -
19/08:30am 15.4 NE 2 4 1013.8 - 0.4 - Cloudy 10 - - - -
19/08:00am 15.5 S 4 5 1013.6 - 0.0 - Partly cloudy 10 - - - -
19/07:30am 14.8 SSE 3 4 1013.8 - 0.0 - Partly cloudy 10 - - - -
19/07:00am 13.8 SSE 5 7 1013.5 - 0.0 - Partly cloudy 10 - - - -
19/06:30am 13.8 SSE 5 7 1013.2 - 0.0 - Cloudy 10 - - - -
19/06:00am 14.1 SSE 6 7 1013.4 - 0.0 - Mostly cloudy 10 - - - -
19/05:30am 14.3 SE 5 7 1013.5 - 0.0 - Cloudy 10 - - - -
19/05:00am 14.2 SSE 4 6 1014.1 - 0.0 - Cloudy 10 - - - -
19/04:30am 14.3 SSE 5 7 1014.5 - 0.0 - Cloudy 10 - - - -
19/04:00am 14.0 SSE 7 9 1014.6 - 0.0 - Cloudy 10 - - - -
19/03:30am 14.7 SSE 9 10 1014.8 - 0.0 - Cloudy 10 - - - -
19/03:00am 14.0 SSE 8 9 1015.3 - 0.0 - Mostly cloudy 10 - - - -
19/02:30am 13.5 SSE 7 9 1016.1 - 0.0 - - 10 - - - -
19/02:00am 13.6 SSE 7 8 1016.4 - 0.0 - - 10 - - - -
19/01:30am 14.0 SSE 5 7 1016.8 - 0.0 - - 10 - - - -
19/01:00am 14.6 SE 6 7 1017.3 - 0.0 - - 10 - - - -
19/12:30am 15.2 E 5 7 1017.8 - 0.0 - Partly cloudy 10 - - - -
19/12:00am 15.1 SE 6 8 1018.0 - 0.0 - Partly cloudy 10 - - - -
 
Date/Time
EDT
Temp
°C
Wind Pressure Rain since
9am
mm
Weather Cloud Vis
km
Sea
Height
m
Swell
Dir  Spd
kts
Gust
kts
hPa Trend Height
m
Period
s
Dir
18/11:30pm 15.3 SSE 7 8 1018.2 - 0.0 - Partly cloudy 10 - - - -
18/11:00pm 14.8 SSE 7 9 1018.5 - 0.0 - Partly cloudy 10 - - - -
18/10:30pm 14.6 SSE 6 8 1018.9 - 0.0 - - 10 - - - -
18/10:00pm 14.8 SSE 7 8 1019.2 - 0.0 - - 10 - - - -
18/09:30pm 15.0 SSE 7 8 1019.4 - 0.0 - - 10 - - - -
18/09:00pm 15.0 SSE 6 7 1019.5 - 0.0 - - 10 - - - -
18/08:30pm 14.9 CALM 0 0 1019.5 - 0.0 - - 10 - - - -
18/08:00pm 15.5 E 3 4 1019.2 - 0.0 - - 10 - - - -
18/07:30pm 16.2 E 3 4 1019.2 - 0.0 - - 10 - - - -
18/07:00pm 17.1 CALM 0 2 1019.1 - 0.0 - - 10 - - - -
18/06:30pm 17.1 NE 2 4 1018.9 - 0.0 - - 10 - - - -
18/06:00pm 17.6 NNE 5 7 1018.8 - 0.0 - - 10 - - - -
18/05:30pm 17.5 NE 5 7 1019.1 - 0.0 - - 10 - - - -
18/05:00pm 17.4 NNE 7 10 1019.2 - 0.0 - - 10 - - - -
18/04:30pm 18.0 NNE 6 9 1019.3 - 0.0 - - 10 - - - -
18/04:00pm 17.8 N 5 8 1019.5 - 0.0 - - 10 - - - -
18/03:30pm 17.9 N 6 9 1019.7 - 0.0 - - 10 - - - -
18/03:00pm 18.1 NE 5 7 1020.0 - 0.0 - - 10 - - - -
18/02:30pm 18.1 NNE 7 9 1020.6 - 0.0 - - 10 - - - -
18/02:00pm 18.3 NNE 7 9 1021.1 - 0.0 - - 10 - - - -
18/01:30pm 18.1 N 9 11 1021.4 - 0.0 - - 10 - - - -
18/01:00pm 18.7 N 7 10 1021.6 - 0.0 - - 10 - - - -
18/12:30pm 19.4 N 7 10 1022.0 - 0.0 - - 10 - - - -
18/12:00pm 19.8 N 6 7 1021.9 - 0.0 - - 10 - - - -
18/11:30am 19.9 NNE 7 9 1022.1 - 0.0 - - 10 - - - -
18/11:00am 19.9 NE 6 8 1022.8 - 0.0 - - 10 - - - -
18/10:30am 19.2 NE 5 7 1023.1 - 0.0 - - 10 - - - -
18/10:00am 18.6 NE 5 7 1023.3 - 0.0 - - 10 - - - -
18/09:30am 17.9 E 4 5 1023.3 - 0.0 - - 10 - - - -
18/09:00am 16.9 NNE 4 6 1023.6 - 0.0 - - 10 - - - -
18/08:30am 16.5 SSE 4 5 1023.5 - 0.0 - - 10 - - - -
18/08:00am 14.2 S 9 12 1022.9 - 0.0 - - 10 - - - -
18/07:30am 12.6 SSE 10 12 1022.8 - 0.0 - - 10 - - - -
18/07:00am 11.5 SSE 11 13 1022.5 - 0.0 - - 10 - - - -
18/06:30am 11.4 SSE 11 13 1022.3 - 0.0 - - 10 - - - -
18/06:00am 10.8 SSE 9 12 1022.0 - 0.0 - - 10 - - - -
18/05:30am 10.9 S 9 11 1022.0 - 0.0 - - 10 - - - -
18/05:00am 10.6 SSE 9 11 1022.2 - 0.0 - - 10 - - - -
18/04:30am 10.9 S 9 11 1022.2 - 0.0 - - 10 - - - -
18/04:00am 10.6 SSE 9 10 1022.4 - 0.0 - - 10 - - - -
18/03:30am 10.8 SSE 9 10 1022.4 - 0.0 - - 10 - - - -
18/03:00am 10.9 SSE 8 10 1022.7 - 0.0 - - 10 - - - -
18/02:30am 11.2 S 8 9 1022.9 - 0.0 - - 10 - - - -
18/02:00am 11.2 S 8 10 1022.8 - 0.0 - - 10 - - - -
18/01:30am 11.2 SSE 7 9 1023.1 - 0.0 - - 10 - - - -
18/01:00am 11.8 S 7 8 1023.5 - 0.0 - - 10 - - - -
18/12:30am 11.6 SSE 5 5 1023.8 - 0.0 - - 10 - - - -
18/12:00am 11.8 SSE 4 5 1023.8 - 0.0 - - 10 - - - -
 
Date/Time
EDT
Temp
°C
Wind Pressure Rain since
9am
mm
Weather Cloud Vis
km
Sea
Height
m
Swell
Dir  Spd
kts
Gust
kts
hPa Trend Height
m
Period
s
Dir
17/11:30pm 12.2 SSE 6 7 1024.0 - 0.0 - - 10 - - - -
17/11:00pm 12.0 SSE 6 7 1024.1 - 0.0 - - 10 - - - -
17/10:30pm 11.9 SSE 4 4 1024.3 - 0.0 - - 10 - - - -
17/10:00pm 12.2 SSE 4 5 1024.4 - 0.0 - - 10 - - - -
17/09:30pm 12.2 E 4 5 1024.3 - 0.0 - - 10 - - - -
17/09:00pm 13.8 SSE 6 7 1024.1 - 0.0 - - 10 - - - -
17/08:30pm 14.1 SSE 5 6 1023.8 - 0.0 - - 10 - - - -
17/08:00pm 15.2 CALM 0 0 1023.5 - 0.0 - - 10 - - - -
17/07:30pm 16.4 CALM 0 3 1023.5 - 0.0 - - 10 - - - -
17/07:00pm 17.5 CALM 0 0 1023.2 - 0.0 - - 10 - - - -
17/06:30pm 17.9 NNE 4 5 1023.0 - 0.0 - - 10 - - - -
17/06:00pm 17.9 NNE 4 5 1023.1 - 0.0 - - 10 - - - -
17/05:30pm 18.0 N 3 4 1023.1 - 0.0 - - 10 - - - -
17/05:00pm 17.5 NNW 3 5 1023.2 - 0.0 - - 10 - - - -
17/04:30pm 17.7 N 3 5 1023.3 - 0.0 - - 10 - - - -
17/04:00pm 17.3 NW 5 7 1023.6 - 0.0 - - 10 - - - -
17/03:30pm 16.9 NW 8 10 1023.7 - 0.0 - - 10 - - - -
17/03:00pm 17.2 NNW 8 11 1023.8 - 0.0 - - 10 - - - -
17/02:30pm 17.1 N 6 8 1023.9 - 0.0 - - 10 - - - -
17/02:00pm 17.0 N 5 8 1024.0 - 0.0 - - 10 - - - -
17/01:30pm 16.9 N 7 9 1024.1 - 0.0 - - 10 - - - -
17/01:00pm 16.8 N 8 10 1024.3 - 0.0 - - 10 - - - -
17/12:30pm 16.7 N 8 9 1024.5 - 0.0 - - 10 - - - -
17/12:00pm 16.4 N 8 9 1024.6 - 0.0 - - 10 - - - -
17/11:30am 17.1 N 8 9 1024.7 - 0.0 - - 10 - - - -
17/11:00am 17.5 NNE 8 9 1024.9 - 0.0 - - 10 - - - -
17/10:30am 17.9 NE 5 6 1024.9 - 0.0 - - 10 - - - -
17/10:00am 17.0 NNE 5 6 1025.0 - 0.0 - - 10 - - - -
17/09:30am 16.8 E 4 8 1025.0 - 0.0 - - 10 - - - -
17/09:00am 15.8 ESE 4 6 1025.0 - 0.0 - - 10 - - - -
17/08:30am 14.5 SE 5 6 1025.2 - 0.0 - - 10 - - - -
17/08:00am 13.5 SSE 5 6 1025.0 - 0.0 - - 10 - - - -
17/07:30am 12.2 SSE 5 7 1024.8 - 0.0 - - 10 - - - -
17/07:00am 11.0 SSE 6 7 1024.5 - 0.0 - Partly cloudy 10 - - - -
17/06:55am 11.0 SSE 5 7 1024.4 - 0.0 - Partly cloudy 10 - - - -
17/06:30am 11.3 S 6 7 1024.3 - 0.0 - Cloudy 10 - - - -
17/06:00am 12.0 SSE 5 7 1024.1 - 0.0 - Mostly cloudy 10 - - - -
17/05:30am 11.7 S 5 6 1024.1 - 0.0 - Cloudy 10 - - - -
17/05:00am 12.2 S 6 7 1024.1 - 0.0 - Cloudy 10 - - - -
17/04:30am 12.7 SSE 5 8 1024.4 - 0.0 - Cloudy 10 - - - -
17/04:00am 12.7 S 6 7 1024.2 - 0.0 - Cloudy 10 - - - -
17/03:30am 12.8 SE 6 7 1024.3 - 0.0 - Cloudy 10 - - - -
17/03:00am 12.6 SE 4 6 1024.7 - 0.0 - Cloudy 10 - - - -
17/02:30am 12.2 ESE 4 5 1024.8 - 0.0 - Cloudy 10 - - - -
17/02:00am 11.7 SSE 5 7 1025.2 - 0.0 - Cloudy 10 - - - -
17/01:30am 11.6 S 7 8 1025.7 - 0.0 - Cloudy 10 - - - -
17/01:00am 11.3 SSE 6 7 1025.7 - 0.0 - Cloudy 10 - - - -
17/12:30am 11.1 S 5 7 1025.8 - 0.0 - Cloudy 10 - - - -
17/12:00am 10.8 S 5 7 1025.9 - 0.0 - Mostly cloudy 10 - - - -
 
Date/Time
EDT
Temp
°C
Wind Pressure Rain since
9am
mm
Weather Cloud Vis
km
Sea
Height
m
Swell
Dir  Spd
kts
Gust
kts
hPa Trend Height
m
Period
s
Dir
16/11:49pm 10.1 S 6 7 1025.7 - 0.0 - Partly cloudy 10 - - - -
16/11:30pm 9.0 SSE 5 7 1025.7 - 0.0 - - 10 - - - -
16/11:00pm 9.0 ESE 1 3 1025.8 - 0.0 - - 10 - - - -
16/10:59pm 9.0 E 1 3 1025.8 - 0.0 - - 10 - - - -
16/10:46pm 9.1 ENE 3 4 1025.8 - 0.0 - - 6 - - - -
16/10:30pm 9.4 E 3 3 1025.8 - 0.0 - - 10 - - - -
16/10:00pm 9.6 SSE 5 6 1025.8 - 0.0 - - 10 - - - -
16/09:30pm 9.3 SSE 5 6 1025.9 - 0.0 - - 10 - - - -
16/09:17pm 9.3 E 3 4 1026.0 - 0.0 - - 10 - - - -
16/09:00pm 9.7 ENE 2 3 1026.1 - 0.0 - Mostly clear 6 - - - -
16/08:59pm 9.8 ENE 3 3 1026.1 - 0.0 - Partly cloudy 6 - - - -
16/08:50pm 10.0 ENE 3 4 1026.0 - 0.0 - Partly cloudy 10 - - - -
16/08:30pm 10.3 NE 4 4 1025.9 - 0.0 - Partly cloudy 10 - - - -
16/08:00pm 11.1 CALM 0 0 1025.6 - 0.0 - Cloudy 10 - - - -
16/07:30pm 11.2 CALM 0 3 1025.5 - 0.0 - Cloudy 10 - - - -
16/07:00pm 11.4 NNW 4 6 1025.5 - 0.0 - Cloudy 10 - - - -
16/06:30pm 11.7 N 5 6 1025.4 - 0.0 - Cloudy 10 - - - -
16/06:00pm 12.6 N 7 9 1025.5 - 0.0 - Partly cloudy 10 - - - -
16/05:53pm 12.9 NNW 7 9 1025.5 - 0.0 - Partly cloudy 10 - - - -
16/05:30pm 13.2 N 6 8 1025.4 - 0.0 - - 10 - - - -
16/05:00pm 12.8 NNW 7 9 1025.2 - 0.0 - - 10 - - - -
16/04:30pm 13.2 NNW 4 6 1025.2 - 0.0 - - 10 - - - -
16/04:00pm 13.6 N 5 7 1025.5 - 0.0 - - 10 - - - -
16/03:30pm 14.1 N 7 9 1025.8 - 0.0 - Partly cloudy 10 - - - -
16/03:22pm 13.4 N 6 9 1025.8 - 0.0 - Partly cloudy 10 - - - -
16/03:00pm 13.3 NW 6 10 1026.1 - 0.0 - Partly cloudy 10 - - - -

Other Formats:

Comma delimited format used in spreadsheet applications
http://www.bom.gov.au/fwo/IDV60701/IDV60701.95960.axf

JavaScript Object Notation format (JSON) in row-major order
http://www.bom.gov.au/fwo/IDV60701/IDV60701.95960.json